sensor_id;sensor_type;location;lat;lon;timestamp;temperature;humidity
34153;DHT22;20426;48.372;10.888;2023-04-07T00:00:06;8.00;79.70
34153;DHT22;20426;48.372;10.888;2023-04-07T00:00:37;8.00;79.70
34153;DHT22;20426;48.372;10.888;2023-04-07T00:01:08;8.10;79.90
34153;DHT22;20426;48.372;10.888;2023-04-07T00:01:39;8.10;79.60
34153;DHT22;20426;48.372;10.888;2023-04-07T00:02:09;8.10;79.80
34153;DHT22;20426;48.372;10.888;2023-04-07T00:02:40;8.10;80.30
34153;DHT22;20426;48.372;10.888;2023-04-07T00:03:12;8.00;80.30
34153;DHT22;20426;48.372;10.888;2023-04-07T00:03:43;8.00;80.00
34153;DHT22;20426;48.372;10.888;2023-04-07T00:04:13;8.00;80.20
34153;DHT22;20426;48.372;10.888;2023-04-07T00:04:44;8.00;80.40
34153;DHT22;20426;48.372;10.888;2023-04-07T00:05:15;8.00;80.10
34153;DHT22;20426;48.372;10.888;2023-04-07T00:05:46;7.90;80.60
34153;DHT22;20426;48.372;10.888;2023-04-07T00:06:17;8.00;80.90
34153;DHT22;20426;48.372;10.888;2023-04-07T00:06:48;8.00;80.80
34153;DHT22;20426;48.372;10.888;2023-04-07T00:07:18;8.00;80.70
34153;DHT22;20426;48.372;10.888;2023-04-07T00:07:49;8.00;80.70
34153;DHT22;20426;48.372;10.888;2023-04-07T00:08:20;8.00;80.80
34153;DHT22;20426;48.372;10.888;2023-04-07T00:08:51;8.00;80.90
34153;DHT22;20426;48.372;10.888;2023-04-07T00:09:22;8.00;80.50
34153;DHT22;20426;48.372;10.888;2023-04-07T00:09:53;8.00;80.50
34153;DHT22;20426;48.372;10.888;2023-04-07T00:10:24;8.00;80.60
34153;DHT22;20426;48.372;10.888;2023-04-07T00:10:55;8.00;80.70
34153;DHT22;20426;48.372;10.888;2023-04-07T00:11:26;8.00;81.30
34153;DHT22;20426;48.372;10.888;2023-04-07T00:11:56;8.00;81.20
34153;DHT22;20426;48.372;10.888;2023-04-07T00:12:27;8.00;81.10
34153;DHT22;20426;48.372;10.888;2023-04-07T00:12:58;8.00;81.00
34153;DHT22;20426;48.372;10.888;2023-04-07T00:13:30;7.90;80.50
34153;DHT22;20426;48.372;10.888;2023-04-07T00:14:00;8.00;80.50
34153;DHT22;20426;48.372;10.888;2023-04-07T00:14:31;8.00;80.60
34153;DHT22;20426;48.372;10.888;2023-04-07T00:15:02;8.00;80.60
34153;DHT22;20426;48.372;10.888;2023-04-07T00:15:32;8.00;80.60
34153;DHT22;20426;48.372;10.888;2023-04-07T00:16:03;7.90;80.50
34153;DHT22;20426;48.372;10.888;2023-04-07T00:16:34;7.90;80.70
34153;DHT22;20426;48.372;10.888;2023-04-07T00:17:05;7.90;80.90
34153;DHT22;20426;48.372;10.888;2023-04-07T00:17:36;7.90;80.80
34153;DHT22;20426;48.372;10.888;2023-04-07T00:18:06;7.90;80.90
34153;DHT22;20426;48.372;10.888;2023-04-07T00:18:37;7.90;81.20
34153;DHT22;20426;48.372;10.888;2023-04-07T00:19:08;7.90;81.10
34153;DHT22;20426;48.372;10.888;2023-04-07T00:19:39;7.90;81.20
34153;DHT22;20426;48.372;10.888;2023-04-07T00:20:10;7.90;81.20
34153;DHT22;20426;48.372;10.888;2023-04-07T00:20:40;7.90;81.20
34153;DHT22;20426;48.372;10.888;2023-04-07T00:21:11;7.90;81.20
34153;DHT22;20426;48.372;10.888;2023-04-07T00:21:42;7.90;81.20
34153;DHT22;20426;48.372;10.888;2023-04-07T00:22:12;7.90;81.10
34153;DHT22;20426;48.372;10.888;2023-04-07T00:22:43;7.90;81.20
34153;DHT22;20426;48.372;10.888;2023-04-07T00:23:14;7.90;81.10
34153;DHT22;20426;48.372;10.888;2023-04-07T00:23:45;7.90;81.10
34153;DHT22;20426;48.372;10.888;2023-04-07T00:24:16;7.90;81.20
34153;DHT22;20426;48.372;10.888;2023-04-07T00:24:47;7.90;81.20
34153;DHT22;20426;48.372;10.888;2023-04-07T00:25:17;7.90;81.30
34153;DHT22;20426;48.372;10.888;2023-04-07T00:25:48;7.90;81.20
34153;DHT22;20426;48.372;10.888;2023-04-07T00:26:19;7.90;81.20
34153;DHT22;20426;48.372;10.888;2023-04-07T00:29:03;7.90;81.30
34153;DHT22;20426;48.372;10.888;2023-04-07T00:29:34;7.90;81.30
34153;DHT22;20426;48.372;10.888;2023-04-07T00:30:06;7.80;81.40
34153;DHT22;20426;48.372;10.888;2023-04-07T00:30:36;7.80;81.40
34153;DHT22;20426;48.372;10.888;2023-04-07T00:31:07;7.80;81.60
34153;DHT22;20426;48.372;10.888;2023-04-07T00:31:38;7.90;82.20
34153;DHT22;20426;48.372;10.888;2023-04-07T00:32:09;7.90;82.40
34153;DHT22;20426;48.372;10.888;2023-04-07T00:32:40;7.90;82.50
34153;DHT22;20426;48.372;10.888;2023-04-07T00:33:10;7.80;82.40
34153;DHT22;20426;48.372;10.888;2023-04-07T00:33:41;7.90;81.90
34153;DHT22;20426;48.372;10.888;2023-04-07T00:34:12;7.80;81.70
34153;DHT22;20426;48.372;10.888;2023-04-07T00:34:42;7.80;81.90
34153;DHT22;20426;48.372;10.888;2023-04-07T00:35:13;7.80;81.80
34153;DHT22;20426;48.372;10.888;2023-04-07T00:35:44;7.80;81.80
34153;DHT22;20426;48.372;10.888;2023-04-07T00:36:15;7.80;81.90
34153;DHT22;20426;48.372;10.888;2023-04-07T00:36:46;7.80;82.00
34153;DHT22;20426;48.372;10.888;2023-04-07T00:37:21;7.80;82.10
34153;DHT22;20426;48.372;10.888;2023-04-07T00:37:52;7.80;82.30
34153;DHT22;20426;48.372;10.888;2023-04-07T00:38:23;7.80;82.00
34153;DHT22;20426;48.372;10.888;2023-04-07T00:38:53;7.80;81.80
34153;DHT22;20426;48.372;10.888;2023-04-07T00:39:24;7.80;82.10
34153;DHT22;20426;48.372;10.888;2023-04-07T00:39:56;7.90;82.00
34153;DHT22;20426;48.372;10.888;2023-04-07T00:40:28;7.80;81.80
34153;DHT22;20426;48.372;10.888;2023-04-07T00:40:59;7.90;82.00
34153;DHT22;20426;48.372;10.888;2023-04-07T00:41:33;7.90;82.10
34153;DHT22;20426;48.372;10.888;2023-04-07T00:42:04;7.90;81.70
34153;DHT22;20426;48.372;10.888;2023-04-07T00:42:36;7.90;81.50
34153;DHT22;20426;48.372;10.888;2023-04-07T00:43:07;7.90;81.50
34153;DHT22;20426;48.372;10.888;2023-04-07T00:43:38;7.90;81.70
34153;DHT22;20426;48.372;10.888;2023-04-07T00:44:09;7.80;81.80
34153;DHT22;20426;48.372;10.888;2023-04-07T00:44:40;7.90;82.20
34153;DHT22;20426;48.372;10.888;2023-04-07T00:45:11;7.80;82.20
34153;DHT22;20426;48.372;10.888;2023-04-07T00:45:42;7.80;82.40
34153;DHT22;20426;48.372;10.888;2023-04-07T00:46:12;7.80;82.40
34153;DHT22;20426;48.372;10.888;2023-04-07T00:46:43;7.80;82.40
34153;DHT22;20426;48.372;10.888;2023-04-07T00:47:15;7.80;82.50
34153;DHT22;20426;48.372;10.888;2023-04-07T00:47:46;7.80;82.60
34153;DHT22;20426;48.372;10.888;2023-04-07T00:48:17;7.80;82.80
34153;DHT22;20426;48.372;10.888;2023-04-07T00:48:47;7.80;82.90
34153;DHT22;20426;48.372;10.888;2023-04-07T00:49:18;7.70;82.90
34153;DHT22;20426;48.372;10.888;2023-04-07T00:51:25;7.80;83.20
34153;DHT22;20426;48.372;10.888;2023-04-07T00:51:57;7.80;83.60
34153;DHT22;20426;48.372;10.888;2023-04-07T00:52:28;7.80;83.60
34153;DHT22;20426;48.372;10.888;2023-04-07T00:52:59;7.70;84.00
34153;DHT22;20426;48.372;10.888;2023-04-07T00:53:31;7.70;83.90
34153;DHT22;20426;48.372;10.888;2023-04-07T00:54:03;7.80;84.60
34153;DHT22;20426;48.372;10.888;2023-04-07T00:54:33;7.70;84.70
34153;DHT22;20426;48.372;10.888;2023-04-07T00:55:05;7.70;85.00
34153;DHT22;20426;48.372;10.888;2023-04-07T00:55:35;7.70;85.20
34153;DHT22;20426;48.372;10.888;2023-04-07T00:56:06;7.70;85.50
34153;DHT22;20426;48.372;10.888;2023-04-07T00:56:37;7.70;85.70
34153;DHT22;20426;48.372;10.888;2023-04-07T00:57:08;7.70;85.60
34153;DHT22;20426;48.372;10.888;2023-04-07T00:57:38;7.70;85.80
34153;DHT22;20426;48.372;10.888;2023-04-07T00:58:09;7.70;86.00
34153;DHT22;20426;48.372;10.888;2023-04-07T00:58:40;7.70;86.30
34153;DHT22;20426;48.372;10.888;2023-04-07T00:59:11;7.70;86.70
34153;DHT22;20426;48.372;10.888;2023-04-07T00:59:41;7.70;86.70
34153;DHT22;20426;48.372;10.888;2023-04-07T01:00:12;7.70;86.70
34153;DHT22;20426;48.372;10.888;2023-04-07T01:00:48;7.70;86.80
34153;DHT22;20426;48.372;10.888;2023-04-07T01:01:23;7.60;86.90
34153;DHT22;20426;48.372;10.888;2023-04-07T01:02:20;7.70;87.20
34153;DHT22;20426;48.372;10.888;2023-04-07T01:03:04;7.60;87.30
34153;DHT22;20426;48.372;10.888;2023-04-07T01:04:19;7.60;87.80
34153;DHT22;20426;48.372;10.888;2023-04-07T01:05:54;7.50;88.20
34153;DHT22;20426;48.372;10.888;2023-04-07T01:06:32;7.50;88.50
34153;DHT22;20426;48.372;10.888;2023-04-07T01:07:10;7.50;88.80
34153;DHT22;20426;48.372;10.888;2023-04-07T01:08:46;7.50;89.40
34153;DHT22;20426;48.372;10.888;2023-04-07T01:09:24;7.50;89.80
34153;DHT22;20426;48.372;10.888;2023-04-07T01:10:03;7.40;90.00
34153;DHT22;20426;48.372;10.888;2023-04-07T01:10:55;7.40;90.00
34153;DHT22;20426;48.372;10.888;2023-04-07T01:11:38;7.40;90.00
34153;DHT22;20426;48.372;10.888;2023-04-07T01:13:11;7.30;90.30
34153;DHT22;20426;48.372;10.888;2023-04-07T01:13:48;7.30;90.30
34153;DHT22;20426;48.372;10.888;2023-04-07T01:14:19;7.30;90.50
34153;DHT22;20426;48.372;10.888;2023-04-07T01:14:54;7.30;90.50
34153;DHT22;20426;48.372;10.888;2023-04-07T01:15:28;7.30;90.50
34153;DHT22;20426;48.372;10.888;2023-04-07T01:16:04;7.30;90.60
34153;DHT22;20426;48.372;10.888;2023-04-07T01:16:42;7.30;90.70
34153;DHT22;20426;48.372;10.888;2023-04-07T01:17:16;7.30;90.60
34153;DHT22;20426;48.372;10.888;2023-04-07T01:17:52;7.30;90.70
34153;DHT22;20426;48.372;10.888;2023-04-07T01:18:32;7.30;90.80
34153;DHT22;20426;48.372;10.888;2023-04-07T01:20:04;7.30;91.00
34153;DHT22;20426;48.372;10.888;2023-04-07T01:20:38;7.30;90.90
34153;DHT22;20426;48.372;10.888;2023-04-07T01:21:13;7.30;91.00
34153;DHT22;20426;48.372;10.888;2023-04-07T01:21:45;7.30;91.10
34153;DHT22;20426;48.372;10.888;2023-04-07T01:22:27;7.30;91.10
34153;DHT22;20426;48.372;10.888;2023-04-07T01:23:03;7.30;91.20
34153;DHT22;20426;48.372;10.888;2023-04-07T01:24:38;7.20;91.30
34153;DHT22;20426;48.372;10.888;2023-04-07T01:25:21;7.30;91.40
34153;DHT22;20426;48.372;10.888;2023-04-07T01:26:48;7.30;91.40
34153;DHT22;20426;48.372;10.888;2023-04-07T01:29:26;7.20;91.50
34153;DHT22;20426;48.372;10.888;2023-04-07T01:29:57;7.20;91.70
34153;DHT22;20426;48.372;10.888;2023-04-07T01:30:32;7.30;91.90
34153;DHT22;20426;48.372;10.888;2023-04-07T01:31:04;7.30;91.90
34153;DHT22;20426;48.372;10.888;2023-04-07T01:31:39;7.20;91.80
34153;DHT22;20426;48.372;10.888;2023-04-07T01:32:11;7.20;91.90
34153;DHT22;20426;48.372;10.888;2023-04-07T01:32:46;7.20;92.00
34153;DHT22;20426;48.372;10.888;2023-04-07T01:33:20;7.20;92.00
34153;DHT22;20426;48.372;10.888;2023-04-07T01:33:53;7.20;92.10
34153;DHT22;20426;48.372;10.888;2023-04-07T01:34:26;7.20;92.20
34153;DHT22;20426;48.372;10.888;2023-04-07T01:34:58;7.30;92.30
34153;DHT22;20426;48.372;10.888;2023-04-07T01:35:32;7.20;92.30
34153;DHT22;20426;48.372;10.888;2023-04-07T01:36:05;7.20;92.40
34153;DHT22;20426;48.372;10.888;2023-04-07T01:36:37;7.20;92.40
34153;DHT22;20426;48.372;10.888;2023-04-07T01:37:09;7.20;92.50
34153;DHT22;20426;48.372;10.888;2023-04-07T01:37:41;7.20;92.60
34153;DHT22;20426;48.372;10.888;2023-04-07T01:38:13;7.20;92.70
34153;DHT22;20426;48.372;10.888;2023-04-07T01:38:45;7.20;92.80
34153;DHT22;20426;48.372;10.888;2023-04-07T01:39:16;7.20;92.80
34153;DHT22;20426;48.372;10.888;2023-04-07T01:39:48;7.20;92.90
34153;DHT22;20426;48.372;10.888;2023-04-07T01:40:20;7.20;92.90
34153;DHT22;20426;48.372;10.888;2023-04-07T01:40:53;7.20;93.10
34153;DHT22;20426;48.372;10.888;2023-04-07T01:41:25;7.20;93.10
34153;DHT22;20426;48.372;10.888;2023-04-07T01:41:57;7.20;93.30
34153;DHT22;20426;48.372;10.888;2023-04-07T01:42:30;7.20;93.40
34153;DHT22;20426;48.372;10.888;2023-04-07T01:43:01;7.20;93.60
34153;DHT22;20426;48.372;10.888;2023-04-07T01:43:32;7.20;93.90
34153;DHT22;20426;48.372;10.888;2023-04-07T01:44:05;7.20;93.90
34153;DHT22;20426;48.372;10.888;2023-04-07T01:44:37;7.20;93.90
34153;DHT22;20426;48.372;10.888;2023-04-07T01:45:09;7.20;94.00
34153;DHT22;20426;48.372;10.888;2023-04-07T01:45:41;7.10;94.10
34153;DHT22;20426;48.372;10.888;2023-04-07T01:46:13;7.10;94.20
34153;DHT22;20426;48.372;10.888;2023-04-07T01:46:44;7.10;94.20
34153;DHT22;20426;48.372;10.888;2023-04-07T01:47:15;7.10;94.20
34153;DHT22;20426;48.372;10.888;2023-04-07T01:47:46;7.10;94.40
34153;DHT22;20426;48.372;10.888;2023-04-07T01:48:18;7.10;94.50
34153;DHT22;20426;48.372;10.888;2023-04-07T01:48:49;7.10;94.60
34153;DHT22;20426;48.372;10.888;2023-04-07T01:49:21;7.10;94.60
34153;DHT22;20426;48.372;10.888;2023-04-07T01:49:53;7.10;94.70
34153;DHT22;20426;48.372;10.888;2023-04-07T01:50:25;7.10;94.80
34153;DHT22;20426;48.372;10.888;2023-04-07T01:50:57;7.10;95.00
34153;DHT22;20426;48.372;10.888;2023-04-07T01:51:29;7.00;95.40
34153;DHT22;20426;48.372;10.888;2023-04-07T01:52:00;7.00;95.30
34153;DHT22;20426;48.372;10.888;2023-04-07T01:52:34;6.90;95.30
34153;DHT22;20426;48.372;10.888;2023-04-07T01:53:06;6.90;95.30
34153;DHT22;20426;48.372;10.888;2023-04-07T01:53:37;6.90;95.40
34153;DHT22;20426;48.372;10.888;2023-04-07T01:54:08;6.90;95.50
34153;DHT22;20426;48.372;10.888;2023-04-07T01:54:40;6.90;95.60
34153;DHT22;20426;48.372;10.888;2023-04-07T01:55:11;6.90;95.80
34153;DHT22;20426;48.372;10.888;2023-04-07T01:55:42;6.90;95.70
34153;DHT22;20426;48.372;10.888;2023-04-07T01:56:13;6.90;95.80
34153;DHT22;20426;48.372;10.888;2023-04-07T01:56:45;6.80;95.80
34153;DHT22;20426;48.372;10.888;2023-04-07T01:57:15;6.80;95.90
34153;DHT22;20426;48.372;10.888;2023-04-07T01:57:46;6.90;96.00
34153;DHT22;20426;48.372;10.888;2023-04-07T01:58:17;6.90;96.00
34153;DHT22;20426;48.372;10.888;2023-04-07T01:58:47;6.90;96.20
34153;DHT22;20426;48.372;10.888;2023-04-07T01:59:18;6.90;96.30
34153;DHT22;20426;48.372;10.888;2023-04-07T01:59:49;6.90;96.40
34153;DHT22;20426;48.372;10.888;2023-04-07T02:00:20;6.90;96.40
34153;DHT22;20426;48.372;10.888;2023-04-07T02:00:50;6.90;96.40
34153;DHT22;20426;48.372;10.888;2023-04-07T02:01:21;6.90;96.50
34153;DHT22;20426;48.372;10.888;2023-04-07T02:01:52;6.90;96.60
34153;DHT22;20426;48.372;10.888;2023-04-07T02:02:23;6.90;96.60
34153;DHT22;20426;48.372;10.888;2023-04-07T02:02:58;6.90;96.60
34153;DHT22;20426;48.372;10.888;2023-04-07T02:03:39;6.90;96.80
34153;DHT22;20426;48.372;10.888;2023-04-07T02:05:05;6.90;96.90
34153;DHT22;20426;48.372;10.888;2023-04-07T02:05:38;6.90;97.30
34153;DHT22;20426;48.372;10.888;2023-04-07T02:06:12;6.90;97.20
34153;DHT22;20426;48.372;10.888;2023-04-07T02:06:52;6.90;97.40
34153;DHT22;20426;48.372;10.888;2023-04-07T02:08:03;6.90;97.50
34153;DHT22;20426;48.372;10.888;2023-04-07T02:08:35;6.80;97.60
34153;DHT22;20426;48.372;10.888;2023-04-07T02:09:10;6.80;97.70
34153;DHT22;20426;48.372;10.888;2023-04-07T02:09:42;6.80;97.80
34153;DHT22;20426;48.372;10.888;2023-04-07T02:10:15;6.80;97.80
34153;DHT22;20426;48.372;10.888;2023-04-07T02:10:47;6.80;97.90
34153;DHT22;20426;48.372;10.888;2023-04-07T02:11:20;6.80;98.30
34153;DHT22;20426;48.372;10.888;2023-04-07T02:11:54;6.80;98.10
34153;DHT22;20426;48.372;10.888;2023-04-07T02:12:28;6.80;98.30
34153;DHT22;20426;48.372;10.888;2023-04-07T02:13:00;6.80;98.30
34153;DHT22;20426;48.372;10.888;2023-04-07T02:13:34;6.80;98.30
34153;DHT22;20426;48.372;10.888;2023-04-07T02:14:07;6.70;98.30
34153;DHT22;20426;48.372;10.888;2023-04-07T02:14:38;6.80;98.50
34153;DHT22;20426;48.372;10.888;2023-04-07T02:15:11;6.80;98.60
34153;DHT22;20426;48.372;10.888;2023-04-07T02:15:42;6.70;98.70
34153;DHT22;20426;48.372;10.888;2023-04-07T02:16:16;6.80;98.70
34153;DHT22;20426;48.372;10.888;2023-04-07T02:16:47;6.80;98.80
34153;DHT22;20426;48.372;10.888;2023-04-07T02:17:18;6.80;98.90
34153;DHT22;20426;48.372;10.888;2023-04-07T02:17:52;6.80;99.00
34153;DHT22;20426;48.372;10.888;2023-04-07T02:18:24;6.80;99.30
34153;DHT22;20426;48.372;10.888;2023-04-07T02:18:56;6.80;99.30
34153;DHT22;20426;48.372;10.888;2023-04-07T02:19:28;6.80;99.50
34153;DHT22;20426;48.372;10.888;2023-04-07T02:20:00;6.80;99.80
34153;DHT22;20426;48.372;10.888;2023-04-07T02:20:33;6.80;99.80
34153;DHT22;20426;48.372;10.888;2023-04-07T02:21:05;6.80;99.90
34153;DHT22;20426;48.372;10.888;2023-04-07T02:21:39;6.80;99.90
34153;DHT22;20426;48.372;10.888;2023-04-07T02:22:11;6.80;99.90
34153;DHT22;20426;48.372;10.888;2023-04-07T02:22:42;6.80;99.90
34153;DHT22;20426;48.372;10.888;2023-04-07T02:23:16;6.70;99.90
34153;DHT22;20426;48.372;10.888;2023-04-07T02:23:47;6.70;99.90
34153;DHT22;20426;48.372;10.888;2023-04-07T02:24:21;6.70;99.90
34153;DHT22;20426;48.372;10.888;2023-04-07T02:24:52;6.70;99.90
34153;DHT22;20426;48.372;10.888;2023-04-07T02:25:30;6.60;99.90
34153;DHT22;20426;48.372;10.888;2023-04-07T02:26:01;6.60;99.90
34153;DHT22;20426;48.372;10.888;2023-04-07T02:26:36;6.60;99.90
34153;DHT22;20426;48.372;10.888;2023-04-07T02:27:07;6.60;99.90
34153;DHT22;20426;48.372;10.888;2023-04-07T02:27:38;6.60;99.90
34153;DHT22;20426;48.372;10.888;2023-04-07T02:28:08;6.60;99.90
34153;DHT22;20426;48.372;10.888;2023-04-07T02:28:39;6.60;99.90
34153;DHT22;20426;48.372;10.888;2023-04-07T02:29:10;6.60;99.90
34153;DHT22;20426;48.372;10.888;2023-04-07T02:29:41;6.60;99.90
34153;DHT22;20426;48.372;10.888;2023-04-07T02:30:12;6.60;99.90
34153;DHT22;20426;48.372;10.888;2023-04-07T02:30:43;6.60;99.90
34153;DHT22;20426;48.372;10.888;2023-04-07T02:31:13;6.60;99.90
34153;DHT22;20426;48.372;10.888;2023-04-07T02:31:44;6.60;99.90
34153;DHT22;20426;48.372;10.888;2023-04-07T02:32:15;6.60;99.90
34153;DHT22;20426;48.372;10.888;2023-04-07T02:32:47;6.60;99.90
34153;DHT22;20426;48.372;10.888;2023-04-07T02:33:18;6.60;99.90
34153;DHT22;20426;48.372;10.888;2023-04-07T02:33:48;6.50;99.90
34153;DHT22;20426;48.372;10.888;2023-04-07T02:34:19;6.50;99.90
34153;DHT22;20426;48.372;10.888;2023-04-07T02:34:50;6.50;99.90
34153;DHT22;20426;48.372;10.888;2023-04-07T02:35:20;6.50;99.90
34153;DHT22;20426;48.372;10.888;2023-04-07T02:35:51;6.50;99.90
34153;DHT22;20426;48.372;10.888;2023-04-07T02:36:22;6.50;99.90
34153;DHT22;20426;48.372;10.888;2023-04-07T02:36:53;6.50;99.90
34153;DHT22;20426;48.372;10.888;2023-04-07T02:37:23;6.50;99.90
34153;DHT22;20426;48.372;10.888;2023-04-07T02:37:54;6.40;99.90
34153;DHT22;20426;48.372;10.888;2023-04-07T02:38:25;6.40;99.90
34153;DHT22;20426;48.372;10.888;2023-04-07T02:38:56;6.40;99.90
34153;DHT22;20426;48.372;10.888;2023-04-07T02:39:26;6.40;99.90
34153;DHT22;20426;48.372;10.888;2023-04-07T02:39:57;6.40;99.90
34153;DHT22;20426;48.372;10.888;2023-04-07T02:40:28;6.40;99.90
34153;DHT22;20426;48.372;10.888;2023-04-07T02:40:58;6.40;99.90
34153;DHT22;20426;48.372;10.888;2023-04-07T02:41:29;6.40;99.90
34153;DHT22;20426;48.372;10.888;2023-04-07T02:42:00;6.30;99.90
34153;DHT22;20426;48.372;10.888;2023-04-07T02:42:31;6.30;99.90
34153;DHT22;20426;48.372;10.888;2023-04-07T02:43:02;6.30;99.90
34153;DHT22;20426;48.372;10.888;2023-04-07T02:43:34;6.40;99.90
34153;DHT22;20426;48.372;10.888;2023-04-07T02:44:05;6.30;99.90
34153;DHT22;20426;48.372;10.888;2023-04-07T02:44:36;6.40;99.90
34153;DHT22;20426;48.372;10.888;2023-04-07T02:45:08;6.40;99.90
34153;DHT22;20426;48.372;10.888;2023-04-07T02:45:45;6.40;99.90
34153;DHT22;20426;48.372;10.888;2023-04-07T02:46:16;6.40;99.90
34153;DHT22;20426;48.372;10.888;2023-04-07T02:46:46;6.40;99.90
34153;DHT22;20426;48.372;10.888;2023-04-07T02:47:17;6.40;99.90
34153;DHT22;20426;48.372;10.888;2023-04-07T02:47:48;6.40;99.90
34153;DHT22;20426;48.372;10.888;2023-04-07T02:48:18;6.40;99.90
34153;DHT22;20426;48.372;10.888;2023-04-07T02:52:21;6.40;99.90
34153;DHT22;20426;48.372;10.888;2023-04-07T02:52:51;6.40;99.90
34153;DHT22;20426;48.372;10.888;2023-04-07T02:53:22;6.40;99.90
34153;DHT22;20426;48.372;10.888;2023-04-07T02:53:53;6.40;99.90
34153;DHT22;20426;48.372;10.888;2023-04-07T02:54:23;6.40;99.90
34153;DHT22;20426;48.372;10.888;2023-04-07T02:54:54;6.40;99.90
34153;DHT22;20426;48.372;10.888;2023-04-07T02:55:25;6.40;99.90
34153;DHT22;20426;48.372;10.888;2023-04-07T02:55:56;6.30;99.90
34153;DHT22;20426;48.372;10.888;2023-04-07T02:56:26;6.30;99.90
34153;DHT22;20426;48.372;10.888;2023-04-07T02:56:57;6.30;99.90
34153;DHT22;20426;48.372;10.888;2023-04-07T02:57:28;6.30;99.90
34153;DHT22;20426;48.372;10.888;2023-04-07T02:57:58;6.30;99.90
34153;DHT22;20426;48.372;10.888;2023-04-07T02:58:29;6.30;99.90
34153;DHT22;20426;48.372;10.888;2023-04-07T02:59:00;6.30;99.90
34153;DHT22;20426;48.372;10.888;2023-04-07T02:59:31;6.30;99.90
34153;DHT22;20426;48.372;10.888;2023-04-07T03:00:03;6.30;99.90
34153;DHT22;20426;48.372;10.888;2023-04-07T03:00:34;6.30;99.90
34153;DHT22;20426;48.372;10.888;2023-04-07T03:01:04;6.40;99.90
34153;DHT22;20426;48.372;10.888;2023-04-07T03:01:35;6.40;99.90
34153;DHT22;20426;48.372;10.888;2023-04-07T03:02:06;6.40;99.90
34153;DHT22;20426;48.372;10.888;2023-04-07T03:02:36;6.40;99.90
34153;DHT22;20426;48.372;10.888;2023-04-07T03:03:07;6.40;99.90
34153;DHT22;20426;48.372;10.888;2023-04-07T03:03:38;6.30;99.90
34153;DHT22;20426;48.372;10.888;2023-04-07T03:04:09;6.40;99.90
34153;DHT22;20426;48.372;10.888;2023-04-07T03:04:41;6.30;99.90
34153;DHT22;20426;48.372;10.888;2023-04-07T03:05:11;6.30;99.90
34153;DHT22;20426;48.372;10.888;2023-04-07T03:05:42;6.30;99.90
34153;DHT22;20426;48.372;10.888;2023-04-07T03:06:13;6.30;99.90
34153;DHT22;20426;48.372;10.888;2023-04-07T03:06:44;6.40;99.90
34153;DHT22;20426;48.372;10.888;2023-04-07T03:07:15;6.40;99.90
34153;DHT22;20426;48.372;10.888;2023-04-07T03:07:45;6.40;99.90
34153;DHT22;20426;48.372;10.888;2023-04-07T03:08:16;6.30;99.90
34153;DHT22;20426;48.372;10.888;2023-04-07T03:08:47;6.40;99.90
34153;DHT22;20426;48.372;10.888;2023-04-07T03:09:17;6.40;99.90
34153;DHT22;20426;48.372;10.888;2023-04-07T03:09:48;6.40;99.90
34153;DHT22;20426;48.372;10.888;2023-04-07T03:10:19;6.30;99.90
34153;DHT22;20426;48.372;10.888;2023-04-07T03:10:49;6.40;99.90
34153;DHT22;20426;48.372;10.888;2023-04-07T03:11:20;6.30;99.90
34153;DHT22;20426;48.372;10.888;2023-04-07T03:11:51;6.30;99.90
34153;DHT22;20426;48.372;10.888;2023-04-07T03:12:21;6.30;99.90
34153;DHT22;20426;48.372;10.888;2023-04-07T03:12:52;6.30;99.90
34153;DHT22;20426;48.372;10.888;2023-04-07T03:13:23;6.30;99.90
34153;DHT22;20426;48.372;10.888;2023-04-07T03:13:53;6.30;99.90
34153;DHT22;20426;48.372;10.888;2023-04-07T03:14:24;6.30;99.90
34153;DHT22;20426;48.372;10.888;2023-04-07T03:14:55;6.30;99.90
34153;DHT22;20426;48.372;10.888;2023-04-07T03:15:26;6.30;99.90
34153;DHT22;20426;48.372;10.888;2023-04-07T03:15:57;6.30;99.90
34153;DHT22;20426;48.372;10.888;2023-04-07T03:16:27;6.30;99.90
34153;DHT22;20426;48.372;10.888;2023-04-07T03:16:58;6.40;99.90
34153;DHT22;20426;48.372;10.888;2023-04-07T03:17:28;6.30;99.90
34153;DHT22;20426;48.372;10.888;2023-04-07T03:17:59;6.30;99.90
34153;DHT22;20426;48.372;10.888;2023-04-07T03:18:30;6.30;99.90
34153;DHT22;20426;48.372;10.888;2023-04-07T03:19:01;6.30;99.90
34153;DHT22;20426;48.372;10.888;2023-04-07T03:19:31;6.30;99.90
34153;DHT22;20426;48.372;10.888;2023-04-07T03:20:02;6.30;99.90
34153;DHT22;20426;48.372;10.888;2023-04-07T03:20:33;6.30;99.90
34153;DHT22;20426;48.372;10.888;2023-04-07T03:21:04;6.30;99.90
34153;DHT22;20426;48.372;10.888;2023-04-07T03:21:36;6.30;99.90
34153;DHT22;20426;48.372;10.888;2023-04-07T03:22:07;6.30;99.90
34153;DHT22;20426;48.372;10.888;2023-04-07T03:22:38;6.30;99.90
34153;DHT22;20426;48.372;10.888;2023-04-07T03:23:09;6.30;99.90
34153;DHT22;20426;48.372;10.888;2023-04-07T03:23:39;6.30;99.90
34153;DHT22;20426;48.372;10.888;2023-04-07T03:24:10;6.30;99.90
34153;DHT22;20426;48.372;10.888;2023-04-07T03:24:41;6.30;99.90
34153;DHT22;20426;48.372;10.888;2023-04-07T03:25:12;6.20;99.90
34153;DHT22;20426;48.372;10.888;2023-04-07T03:25:43;6.30;99.90
34153;DHT22;20426;48.372;10.888;2023-04-07T03:26:14;6.30;99.90
34153;DHT22;20426;48.372;10.888;2023-04-07T03:26:44;6.20;99.90
34153;DHT22;20426;48.372;10.888;2023-04-07T03:27:15;6.20;99.90
34153;DHT22;20426;48.372;10.888;2023-04-07T03:27:46;6.30;99.90
34153;DHT22;20426;48.372;10.888;2023-04-07T03:28:17;6.30;99.90
34153;DHT22;20426;48.372;10.888;2023-04-07T03:28:48;6.30;99.90
34153;DHT22;20426;48.372;10.888;2023-04-07T03:29:18;6.20;99.90
34153;DHT22;20426;48.372;10.888;2023-04-07T03:29:49;6.20;99.90
34153;DHT22;20426;48.372;10.888;2023-04-07T03:30:20;6.30;99.90
34153;DHT22;20426;48.372;10.888;2023-04-07T03:30:51;6.30;99.90
34153;DHT22;20426;48.372;10.888;2023-04-07T03:31:22;6.30;99.90
34153;DHT22;20426;48.372;10.888;2023-04-07T03:31:52;6.30;99.90
34153;DHT22;20426;48.372;10.888;2023-04-07T03:32:23;6.30;99.90
34153;DHT22;20426;48.372;10.888;2023-04-07T03:32:53;6.30;99.90
34153;DHT22;20426;48.372;10.888;2023-04-07T03:33:24;6.30;99.90
34153;DHT22;20426;48.372;10.888;2023-04-07T03:33:55;6.30;99.90
34153;DHT22;20426;48.372;10.888;2023-04-07T03:34:26;6.20;99.90
34153;DHT22;20426;48.372;10.888;2023-04-07T03:34:56;6.20;99.90
34153;DHT22;20426;48.372;10.888;2023-04-07T03:35:27;6.20;99.90
34153;DHT22;20426;48.372;10.888;2023-04-07T03:35:57;6.20;99.90
34153;DHT22;20426;48.372;10.888;2023-04-07T03:36:28;6.20;99.90
34153;DHT22;20426;48.372;10.888;2023-04-07T03:36:59;6.20;99.90
34153;DHT22;20426;48.372;10.888;2023-04-07T03:37:30;6.20;99.90
34153;DHT22;20426;48.372;10.888;2023-04-07T03:38:01;6.10;99.90
34153;DHT22;20426;48.372;10.888;2023-04-07T03:38:31;6.20;99.90